createdAt,value
2023-04-18T00:00:49.872Z,100044.88
2023-04-18T00:03:52.788Z,100044.19
2023-04-18T00:06:55.904Z,100042.25
2023-04-18T00:09:58.546Z,100028.47
2023-04-18T00:13:01.112Z,100046.63
2023-04-18T00:16:03.884Z,100047.44
2023-04-18T00:19:06.606Z,100042.44
2023-04-18T00:22:13.396Z,100046.63
2023-04-18T00:25:16.066Z,100042.50
2023-04-18T00:28:18.648Z,100048.03
2023-04-18T00:31:21.234Z,100053.38
2023-04-18T00:34:23.900Z,100054.50
2023-04-18T00:37:29.834Z,100059.38
2023-04-18T00:40:32.499Z,100049.78
2023-04-18T00:43:35.307Z,100040.06
2023-04-18T00:46:38.017Z,100042.50
2023-04-18T00:49:40.732Z,100056.41
2023-04-18T00:52:43.763Z,100047.59
2023-04-18T00:55:46.508Z,100036.84
2023-04-18T00:58:49.077Z,100061.47
2023-04-18T01:01:51.751Z,100036.03
2023-04-18T01:04:54.444Z,100056.16
2023-04-18T01:08:01.141Z,100059.16
2023-04-18T01:11:04.043Z,100057.53
2023-04-18T01:14:08.250Z,100039.72
2023-04-18T01:17:13.557Z,100050.38
2023-04-18T01:20:16.994Z,100054.66
2023-04-18T01:23:20.452Z,100036.47
2023-04-18T01:26:23.168Z,100051.19
2023-04-18T01:29:26.519Z,100045.97
2023-04-18T01:32:29.178Z,100043.09
2023-04-18T01:35:32.802Z,100051.53
2023-04-18T01:38:35.324Z,100049.44
2023-04-18T01:41:38.100Z,100048.19
2023-04-18T01:44:40.966Z,100044.47
2023-04-18T01:47:44.221Z,100051.66
2023-04-18T01:50:47.485Z,100050.72
2023-04-18T01:53:50.232Z,100054.19
2023-04-18T01:56:52.774Z,100040.78
2023-04-18T01:59:55.594Z,100051.19
2023-04-18T02:03:00.024Z,100059.75
2023-04-18T02:06:04.323Z,100058.84
2023-04-18T02:09:06.948Z,100057.44
2023-04-18T02:12:10.218Z,100063.66
2023-04-18T02:15:12.830Z,100063.44
2023-04-18T02:18:17.495Z,100059.50
2023-04-18T02:21:20.112Z,100072.22
2023-04-18T02:24:24.701Z,100067.00
2023-04-18T02:27:27.303Z,100071.19
2023-04-18T02:30:32.769Z,100075.72
2023-04-18T02:33:37.909Z,100074.22
2023-04-18T02:36:40.954Z,100079.06
2023-04-18T02:39:46.169Z,100082.75
2023-04-18T02:42:48.781Z,100077.09
2023-04-18T02:45:51.421Z,100079.75
2023-04-18T02:48:53.981Z,100075.13
2023-04-18T02:51:59.894Z,100066.69
2023-04-18T02:55:02.621Z,100045.41
2023-04-18T02:58:11.461Z,100072.25
2023-04-18T03:01:22.940Z,100068.88
2023-04-18T03:04:33.400Z,100059.31
2023-04-18T03:07:38.540Z,100078.09
2023-04-18T03:10:41.678Z,100075.19
2023-04-18T03:13:44.475Z,100078.50
2023-04-18T03:16:47.856Z,100079.72
2023-04-18T03:19:54.606Z,100079.31
2023-04-18T03:22:57.293Z,100081.16
2023-04-18T03:26:02.233Z,100081.53
2023-04-18T03:29:07.382Z,100082.56
2023-04-18T03:32:10.037Z,100078.75
2023-04-18T03:35:12.704Z,100083.59
2023-04-18T03:38:15.440Z,100072.38
2023-04-18T03:41:19.036Z,100060.00
2023-04-18T03:44:21.716Z,100078.44
2023-04-18T03:47:24.446Z,100081.44
2023-04-18T03:50:31.688Z,100078.22
2023-04-18T03:53:34.401Z,100070.53
2023-04-18T03:56:37.054Z,100087.84
2023-04-18T03:59:39.686Z,100091.59
2023-04-18T04:02:42.638Z,100091.25
2023-04-18T04:05:48.331Z,100094.81
2023-04-18T04:08:52.038Z,100098.53
2023-04-18T04:11:59.052Z,100105.47
2023-04-18T04:15:03.463Z,100111.03
2023-04-18T04:18:06.679Z,100113.25
2023-04-18T04:21:12.436Z,100105.84
2023-04-18T04:24:22.792Z,100123.66
2023-04-18T04:27:27.217Z,100119.38
2023-04-18T04:30:31.885Z,100093.31
2023-04-18T04:33:35.695Z,100117.09
2023-04-18T04:36:43.249Z,100119.97
2023-04-18T04:39:48.653Z,100107.75
2023-04-18T04:43:15.739Z,100118.25
2023-04-18T04:46:20.563Z,100123.09
2023-04-18T04:49:25.613Z,100125.19
2023-04-18T04:52:28.136Z,100137.34
2023-04-18T04:55:31.095Z,100136.66
2023-04-18T04:58:33.841Z,100140.94
2023-04-18T05:01:53.351Z,100145.38
2023-04-18T05:05:11.663Z,100132.94
2023-04-18T05:08:14.434Z,100143.97
2023-04-18T05:11:18.141Z,100137.25
2023-04-18T05:14:22.356Z,100142.38
2023-04-18T05:17:31.531Z,100145.50
2023-04-18T05:20:34.367Z,100144.22
2023-04-18T05:23:37.271Z,100135.41
2023-04-18T05:26:40.294Z,100156.47
2023-04-18T05:29:42.851Z,100156.81
2023-04-18T05:32:46.561Z,100139.69
2023-04-18T05:35:49.490Z,100106.94
2023-04-18T05:38:52.351Z,100088.75
2023-04-18T05:41:55.668Z,100140.88
2023-04-18T05:44:58.367Z,100169.03
2023-04-18T05:48:01.760Z,100170.41
2023-04-18T05:51:06.056Z,100121.78
2023-04-18T05:54:08.768Z,100182.69
2023-04-18T05:57:12.094Z,100173.44
2023-04-18T06:00:15.370Z,100106.97
2023-04-18T06:03:18.303Z,100103.50
2023-04-18T06:06:21.731Z,100157.34
2023-04-18T06:09:24.360Z,100137.41
2023-04-18T06:12:27.160Z,100131.16
2023-04-18T06:15:30.258Z,100148.63
2023-04-18T06:18:33.193Z,100181.28
2023-04-18T06:21:36.182Z,100113.22
2023-04-18T06:24:39.082Z,100130.09
2023-04-18T06:27:41.755Z,100140.25
2023-04-18T06:30:45.427Z,100154.34
2023-04-18T06:33:48.201Z,100144.25
2023-04-18T06:36:50.907Z,100147.72
2023-04-18T06:39:54.385Z,100155.72
2023-04-18T06:42:57.208Z,100201.75
2023-04-18T06:45:59.971Z,100195.94
2023-04-18T06:49:02.784Z,100130.88
2023-04-18T06:52:05.593Z,100149.53
2023-04-18T06:55:09.404Z,100188.06
2023-04-18T06:58:14.149Z,100136.31
2023-04-18T07:01:17.018Z,100204.38
2023-04-18T07:04:20.230Z,100149.47
2023-04-18T07:07:23.448Z,100163.84
2023-04-18T07:10:26.501Z,100204.31
2023-04-18T07:13:29.765Z,100202.66
2023-04-18T07:16:32.898Z,100140.31
2023-04-18T07:19:35.894Z,100158.84
2023-04-18T07:22:39.288Z,100176.50
2023-04-18T07:25:41.991Z,100219.19
2023-04-18T07:28:47.575Z,100141.88
2023-04-18T07:31:51.430Z,100189.41
2023-04-18T07:34:54.158Z,100165.63
2023-04-18T07:37:57.115Z,100170.97
2023-04-18T07:41:00.863Z,100223.94
2023-04-18T07:44:03.549Z,100178.59
2023-04-18T07:47:10.078Z,100187.81
2023-04-18T07:50:12.910Z,100233.38
2023-04-18T08:14:38.960Z,100172.38
2023-04-18T08:38:55.068Z,100268.09
2023-04-18T08:42:00.062Z,100274.09
2023-04-18T08:45:04.345Z,100245.13
2023-04-18T08:48:17.062Z,100249.38
2023-04-18T08:51:20.049Z,100205.25
2023-04-18T08:54:25.078Z,100260.78
2023-04-18T08:57:31.663Z,100245.56
2023-04-18T09:00:43.434Z,100288.56
2023-04-18T09:03:46.836Z,100295.63
2023-04-18T09:06:55.750Z,100296.69
2023-04-18T09:10:02.824Z,100293.06
2023-04-18T09:13:15.275Z,100292.06
2023-04-18T09:16:26.590Z,100299.31
2023-04-18T09:19:32.148Z,100286.50
2023-04-18T09:22:56.091Z,100301.47
2023-04-18T09:26:03.226Z,100260.25
2023-04-18T09:29:06.546Z,100312.91
2023-04-18T09:32:15.338Z,100289.03
2023-04-18T09:35:24.534Z,100309.91
2023-04-18T09:38:41.324Z,100309.59
2023-04-18T09:41:58.633Z,100296.81
2023-04-18T09:45:06.906Z,100314.19
2023-04-18T09:48:09.639Z,100304.09
2023-04-18T09:51:16.032Z,100297.84
2023-04-18T09:54:20.725Z,100305.06
2023-04-18T09:57:26.531Z,100311.66
2023-04-18T10:00:31.169Z,100305.63
2023-04-18T10:03:39.276Z,100314.56
2023-04-18T10:06:54.853Z,100307.25
2023-04-18T10:09:57.816Z,100320.00
2023-04-18T10:13:03.390Z,100263.09
2023-04-18T10:16:09.709Z,100252.78
2023-04-18T10:19:22.950Z,100308.81
2023-04-18T10:22:29.037Z,100320.84
2023-04-18T10:25:41.186Z,100309.13
2023-04-18T10:29:00.414Z,100308.13
2023-04-18T10:32:07.238Z,100302.84
2023-04-18T10:35:10.957Z,100309.78
2023-04-18T10:38:17.321Z,100260.94
2023-04-18T10:41:24.689Z,100302.31
2023-04-18T10:44:27.758Z,100285.56
2023-04-18T11:04:09.820Z,100291.31
2023-04-18T11:07:12.633Z,100278.34
2023-04-18T11:10:28.530Z,100263.28
2023-04-18T11:13:32.294Z,100274.72
2023-04-18T11:16:35.891Z,100240.22
2023-04-18T11:19:38.547Z,100278.38
2023-04-18T11:22:50.388Z,100275.19
2023-04-18T11:25:56.719Z,100271.00
2023-04-18T11:28:59.328Z,100273.31
2023-04-18T11:32:02.002Z,100278.72
2023-04-18T11:35:05.110Z,100253.59
2023-04-18T11:38:08.882Z,100278.44
2023-04-18T11:41:17.716Z,100258.16
2023-04-18T11:44:24.949Z,100263.63
2023-04-18T11:47:38.324Z,100255.97
2023-04-18T11:50:41.074Z,100232.88
2023-04-18T11:53:43.796Z,100198.06
2023-04-18T11:56:48.844Z,100224.66
2023-04-18T11:59:59.857Z,100224.22
2023-04-18T12:03:04.862Z,100263.13
2023-04-18T12:06:07.827Z,100265.28
2023-04-18T12:09:14.681Z,100199.31
2023-04-18T12:12:19.645Z,100233.25
2023-04-18T12:15:29.336Z,100230.06
2023-04-18T12:18:32.726Z,100259.91
2023-04-18T12:21:35.440Z,100211.25
2023-04-18T12:24:38.305Z,100223.88
2023-04-18T12:27:52.263Z,100203.09
2023-04-18T12:31:02.143Z,100243.59
2023-04-18T12:34:04.830Z,100207.94
2023-04-18T12:37:07.360Z,100211.50
2023-04-18T12:40:11.299Z,100246.38
2023-04-18T12:43:14.013Z,100208.28
2023-04-18T12:46:17.089Z,100184.25
2023-04-18T12:49:19.909Z,100212.69
2023-04-18T12:52:22.896Z,100240.56
2023-04-18T12:55:26.117Z,100213.47
2023-04-18T12:58:28.821Z,100186.13
2023-04-18T13:01:31.710Z,100170.22
2023-04-18T13:04:34.900Z,100208.34
2023-04-18T13:07:40.805Z,100220.66
2023-04-18T13:10:43.734Z,100221.63
2023-04-18T13:13:47.079Z,100184.59
2023-04-18T13:16:49.823Z,100221.84
2023-04-18T13:19:52.709Z,100229.50
2023-04-18T13:22:55.974Z,100220.34
2023-04-18T13:25:58.818Z,100158.53
2023-04-18T13:29:02.236Z,100203.69
2023-04-18T13:32:06.222Z,100229.50
2023-04-18T13:35:09.252Z,100234.06
2023-04-18T13:38:11.770Z,100231.13
2023-04-18T13:41:14.375Z,100227.38
2023-04-18T13:44:16.987Z,100226.56
2023-04-18T13:47:19.820Z,100224.13
2023-04-18T13:50:23.338Z,100219.56
2023-04-18T13:53:26.009Z,100228.69
2023-04-18T13:56:28.673Z,100211.72
2023-04-18T13:59:32.647Z,100217.94
2023-04-18T14:02:35.385Z,100221.94
2023-04-18T14:05:38.331Z,100222.78
2023-04-18T14:08:41.087Z,100227.63
2023-04-18T14:11:45.457Z,100219.81
2023-04-18T14:14:48.117Z,100215.53
2023-04-18T14:17:50.629Z,100212.00
2023-04-18T14:20:53.427Z,100216.84
2023-04-18T14:23:56.367Z,100221.13
2023-04-18T14:26:58.978Z,100223.75
2023-04-18T14:30:01.835Z,100234.66
2023-04-18T14:33:05.086Z,100200.44
2023-04-18T14:36:08.526Z,100214.03
2023-04-18T14:39:11.340Z,100201.84
2023-04-18T14:42:14.224Z,100225.75
2023-04-18T14:45:17.087Z,100216.69
2023-04-18T14:48:19.796Z,100210.13
2023-04-18T14:51:23.504Z,100223.78
2023-04-18T14:54:26.175Z,100223.59
2023-04-18T14:57:31.834Z,100225.91
2023-04-18T15:00:34.475Z,100228.44
2023-04-18T15:03:37.479Z,100222.81
2023-04-18T15:06:40.933Z,100228.94
2023-04-18T15:09:43.661Z,100227.03
2023-04-18T15:12:49.215Z,100224.03
2023-04-18T15:15:53.023Z,100199.25
2023-04-18T15:18:55.755Z,100218.59
2023-04-18T15:21:58.409Z,100222.38
2023-04-18T15:25:01.018Z,100231.16
2023-04-18T15:28:03.732Z,100219.94
2023-04-18T15:31:07.429Z,100230.03
2023-04-18T15:34:10.255Z,100215.75
2023-04-18T15:37:13.055Z,100228.59
2023-04-18T15:40:16.591Z,100226.09
2023-04-18T15:43:19.308Z,100242.28
2023-04-18T15:46:22.300Z,100242.00
2023-04-18T15:49:24.962Z,100246.28
2023-04-18T15:52:27.625Z,100242.00
2023-04-18T15:55:30.265Z,100240.06
2023-04-18T15:58:32.839Z,100248.97
2023-04-18T16:01:35.835Z,100236.56
2023-04-18T16:04:38.497Z,100245.41
2023-04-18T16:07:42.403Z,100255.06
2023-04-18T16:10:45.170Z,100241.84
2023-04-18T16:13:47.826Z,100241.09
2023-04-18T16:16:50.531Z,100262.91
2023-04-18T16:19:54.346Z,100269.06
2023-04-18T16:22:56.912Z,100272.09
2023-04-18T16:25:59.490Z,100276.47
2023-04-18T16:29:02.212Z,100280.91
2023-04-18T16:32:06.735Z,100279.50
2023-04-18T16:35:10.362Z,100284.25
2023-04-18T16:38:12.918Z,100281.66
2023-04-18T16:41:15.816Z,100282.78
2023-04-18T16:44:18.614Z,100275.59
2023-04-18T16:47:21.369Z,100287.72
2023-04-18T16:50:24.858Z,100266.63
2023-04-18T16:53:27.654Z,100282.88
2023-04-18T16:56:30.780Z,100272.78
2023-04-18T16:59:33.410Z,100277.53
2023-04-18T17:02:36.196Z,100276.38
2023-04-18T17:05:39.520Z,100293.66
2023-04-18T17:08:42.678Z,100290.53
2023-04-18T17:11:45.790Z,100286.38
2023-04-18T17:14:48.516Z,100291.00
2023-04-18T17:17:51.127Z,100291.44
2023-04-18T17:20:53.892Z,100298.69
2023-04-18T17:23:57.302Z,100288.13
2023-04-18T17:27:01.376Z,100301.44
2023-04-18T17:30:04.836Z,100310.34
2023-04-18T17:33:07.815Z,100310.44
2023-04-18T17:36:10.982Z,100320.34
2023-04-18T17:39:16.442Z,100319.63
2023-04-18T17:42:19.876Z,100316.72
2023-04-18T17:45:22.567Z,100327.03
2023-04-18T17:48:25.982Z,100330.44
2023-04-18T17:51:28.810Z,100306.19
2023-04-18T17:54:32.840Z,100327.66
2023-04-18T17:57:35.611Z,100326.53
2023-04-18T18:00:39.396Z,100325.41
2023-04-18T18:03:43.029Z,100336.63
2023-04-18T18:06:55.933Z,100332.06
2023-04-18T18:09:58.519Z,100336.31
2023-04-18T18:13:01.264Z,100336.00
2023-04-18T18:16:04.362Z,100341.31
2023-04-18T18:19:09.857Z,100339.94
2023-04-18T18:22:12.610Z,100352.91
2023-04-18T18:25:15.497Z,100355.47
2023-04-18T18:28:18.803Z,100342.59
2023-04-18T18:31:24.932Z,100361.63
2023-04-18T18:34:29.881Z,100348.94
2023-04-18T18:37:33.135Z,100354.06
2023-04-18T18:40:36.054Z,100362.09
2023-04-18T18:43:38.925Z,100338.03
2023-04-18T18:46:43.079Z,100359.19
2023-04-18T18:49:46.589Z,100348.53
2023-04-18T18:52:49.366Z,100359.13
2023-04-18T18:55:51.922Z,100362.88
2023-04-18T18:58:57.312Z,100354.91
2023-04-18T19:02:00.042Z,100384.09
2023-04-18T19:05:04.041Z,100391.41
2023-04-18T19:08:06.889Z,100377.72
2023-04-18T19:11:10.210Z,100389.78
2023-04-18T19:14:13.960Z,100389.50
2023-04-18T19:17:18.656Z,100373.47
2023-04-18T19:20:22.730Z,100380.28
2023-04-18T19:23:25.763Z,100381.00
2023-04-18T19:26:28.570Z,100379.84
2023-04-18T19:29:32.925Z,100373.28
2023-04-18T19:32:36.412Z,100391.66
2023-04-18T19:35:39.213Z,100374.13
2023-04-18T19:38:41.832Z,100362.50
2023-04-18T19:41:44.535Z,100369.16
2023-04-18T19:44:47.379Z,100382.47
2023-04-18T19:47:50.371Z,100395.63
2023-04-18T19:50:52.981Z,100382.53
2023-04-18T19:53:55.795Z,100367.50
2023-04-18T19:56:58.791Z,100377.38
2023-04-18T20:00:01.514Z,100385.50
2023-04-18T20:03:17.054Z,100367.50
2023-04-18T20:06:20.386Z,100377.78
2023-04-18T20:09:23.316Z,100369.28
2023-04-18T20:12:26.091Z,100373.03
2023-04-18T20:15:30.717Z,100364.34
2023-04-18T20:18:35.867Z,100355.94
2023-04-18T20:21:38.607Z,100343.97
2023-04-18T20:24:41.461Z,100305.03
2023-04-18T20:27:44.260Z,100358.69
2023-04-18T20:30:48.080Z,100359.09
2023-04-18T20:33:51.033Z,100352.59
2023-04-18T20:36:53.925Z,100345.56
2023-04-18T20:39:58.821Z,100350.97
2023-04-18T20:43:04.395Z,100348.88
2023-04-18T20:46:07.358Z,100354.72
2023-04-18T20:49:10.213Z,100355.25
2023-04-18T20:52:14.540Z,100351.88
2023-04-18T20:55:18.435Z,100361.50
2023-04-18T20:58:21.156Z,100360.22
2023-04-18T21:01:23.982Z,100367.13
2023-04-18T21:04:27.656Z,100369.19
2023-04-18T21:07:31.306Z,100382.59
2023-04-18T21:10:34.244Z,100388.28
2023-04-18T21:13:37.095Z,100376.78
2023-04-18T21:16:39.956Z,100397.53
2023-04-18T21:19:44.688Z,100392.19
2023-04-18T21:22:47.412Z,100397.72
2023-04-18T21:25:50.329Z,100404.88
2023-04-18T21:28:53.416Z,100395.22
2023-04-18T21:31:56.147Z,100377.22
2023-04-18T21:34:58.991Z,100398.09
2023-04-18T21:38:01.698Z,100384.81
2023-04-18T21:41:05.766Z,100378.88
2023-04-18T21:44:08.422Z,100398.53
2023-04-18T21:47:11.064Z,100390.25
2023-04-18T21:50:13.752Z,100396.75
2023-04-18T21:53:16.478Z,100397.19
2023-04-18T21:56:19.115Z,100387.56
2023-04-18T21:59:21.966Z,100390.59
2023-04-18T22:02:25.694Z,100381.28
2023-04-18T22:05:28.972Z,100382.72
2023-04-18T22:08:31.746Z,100387.00
2023-04-18T22:11:34.386Z,100383.22
2023-04-18T22:14:37.028Z,100390.78
2023-04-18T22:17:41.515Z,100391.03
2023-04-18T22:20:45.299Z,100365.16
2023-04-18T22:23:47.979Z,100384.13
2023-04-18T22:26:50.663Z,100384.56
2023-04-18T22:29:53.285Z,100388.28
2023-04-18T22:32:55.954Z,100381.41
2023-04-18T22:35:58.756Z,100380.56
2023-04-18T22:39:01.474Z,100358.34
2023-04-18T22:42:05.181Z,100375.44
2023-04-18T22:45:08.340Z,100378.06
2023-04-18T22:48:13.420Z,100367.84
2023-04-18T22:51:18.297Z,100372.50
2023-04-18T22:54:21.183Z,100368.78
2023-04-18T22:57:23.826Z,100357.81
2023-04-18T23:00:26.443Z,100371.00
2023-04-18T23:03:31.300Z,100358.63
2023-04-18T23:06:34.075Z,100353.69
2023-04-18T23:09:37.988Z,100348.25
2023-04-18T23:12:40.670Z,100350.28
2023-04-18T23:15:43.412Z,100348.88
2023-04-18T23:18:46.110Z,100348.34
2023-04-18T23:21:49.727Z,100331.94
2023-04-18T23:24:52.675Z,100348.31
2023-04-18T23:27:55.274Z,100341.19
2023-04-18T23:30:57.882Z,100326.56
2023-04-18T23:34:00.447Z,100331.28
2023-04-18T23:37:03.132Z,100323.25
2023-04-18T23:40:06.975Z,100319.22
2023-04-18T23:43:09.754Z,100325.31
2023-04-18T23:46:13.340Z,100306.28
2023-04-18T23:49:16.312Z,100319.22
2023-04-18T23:52:18.910Z,100318.81
2023-04-18T23:55:21.597Z,100315.50
2023-04-18T23:58:24.200Z,100306.19
